sensor_id;sensor_type;location;lat;lon;timestamp;pressure;altitude;pressure_sealevel;temperature;humidity
48624;BME280;34422;45.802;16.114;2023-12-20T00:01:05;63651.97;;;-1.46;100.00
48624;BME280;34422;45.802;16.114;2023-12-20T00:04:01;63656.31;;;-1.34;100.00
48624;BME280;34422;45.802;16.114;2023-12-20T00:06:49;63656.84;;;-1.33;100.00
48624;BME280;34422;45.802;16.114;2023-12-20T00:09:31;63644.03;;;-1.48;100.00
48624;BME280;34422;45.802;16.114;2023-12-20T00:12:36;63639.22;;;-1.55;100.00
48624;BME280;34422;45.802;16.114;2023-12-20T00:18:59;63670.56;;;-1.30;100.00
48624;BME280;34422;45.802;16.114;2023-12-20T00:22:08;63629.09;;;-1.67;100.00
48624;BME280;34422;45.802;16.114;2023-12-20T00:25:14;63643.53;;;-1.46;100.00
48624;BME280;34422;45.802;16.114;2023-12-20T00:28:18;63635.41;;;-1.66;100.00
48624;BME280;34422;45.802;16.114;2023-12-20T00:31:12;63636.59;;;-1.55;100.00
48624;BME280;34422;45.802;16.114;2023-12-20T00:34:09;63630.69;;;-1.63;100.00
48624;BME280;34422;45.802;16.114;2023-12-20T00:36:49;63632.84;;;-1.61;100.00
48624;BME280;34422;45.802;16.114;2023-12-20T00:39:59;63625.44;;;-1.63;100.00
48624;BME280;34422;45.802;16.114;2023-12-20T00:42:51;63624.31;;;-1.69;100.00
48624;BME280;34422;45.802;16.114;2023-12-20T00:46:30;63608.94;;;-1.82;100.00
48624;BME280;34422;45.802;16.114;2023-12-20T00:49:22;63641.28;;;-1.58;100.00
48624;BME280;34422;45.802;16.114;2023-12-20T00:56:30;63608.34;;;-1.85;100.00
48624;BME280;34422;45.802;16.114;2023-12-20T00:59:09;63638.16;;;-1.56;100.00
48624;BME280;34422;45.802;16.114;2023-12-20T01:02:18;63622.75;;;-1.68;100.00
48624;BME280;34422;45.802;16.114;2023-12-20T01:05:35;63655.19;;;-1.40;100.00
48624;BME280;34422;45.802;16.114;2023-12-20T01:12:09;63643.59;;;-1.44;100.00
48624;BME280;34422;45.802;16.114;2023-12-20T01:15:26;63663.22;;;-1.30;100.00
48624;BME280;34422;45.802;16.114;2023-12-20T01:18:22;63650.94;;;-1.44;100.00
48624;BME280;34422;45.802;16.114;2023-12-20T01:25:05;63680.25;;;-1.14;100.00
48624;BME280;34422;45.802;16.114;2023-12-20T01:31:21;63657.34;;;-1.38;100.00
48624;BME280;34422;45.802;16.114;2023-12-20T01:34:44;63664.84;;;-1.26;100.00
48624;BME280;34422;45.802;16.114;2023-12-20T01:38:14;63675.50;;;-1.16;100.00
48624;BME280;34422;45.802;16.114;2023-12-20T01:41:29;63662.13;;;-1.33;100.00
48624;BME280;34422;45.802;16.114;2023-12-20T01:44:55;63666.38;;;-1.29;100.00
48624;BME280;34422;45.802;16.114;2023-12-20T01:47:53;63614.81;;;-1.73;100.00
48624;BME280;34422;45.802;16.114;2023-12-20T01:50:45;63631.28;;;-1.60;100.00
48624;BME280;34422;45.802;16.114;2023-12-20T01:53:38;63586.56;;;-2.03;100.00
48624;BME280;34422;45.802;16.114;2023-12-20T01:56:08;63603.06;;;-1.87;100.00
48624;BME280;34422;45.802;16.114;2023-12-20T01:58:48;63598.34;;;-1.87;100.00
48624;BME280;34422;45.802;16.114;2023-12-20T02:01:24;63605.19;;;-1.85;100.00
48624;BME280;34422;45.802;16.114;2023-12-20T02:04:04;63622.19;;;-1.71;100.00
48624;BME280;34422;45.802;16.114;2023-12-20T02:07:11;63607.84;;;-1.83;100.00
48624;BME280;34422;45.802;16.114;2023-12-20T02:13:47;63600.91;;;-1.92;100.00
48624;BME280;34422;45.802;16.114;2023-12-20T02:17:21;63590.81;;;-1.99;100.00
48624;BME280;34422;45.802;16.114;2023-12-20T02:20:37;63597.25;;;-1.90;100.00
48624;BME280;34422;45.802;16.114;2023-12-20T02:23:37;63593.44;;;-1.99;100.00
48624;BME280;34422;45.802;16.114;2023-12-20T02:29:48;63601.41;;;-1.94;100.00
48624;BME280;34422;45.802;16.114;2023-12-20T02:34:03;63608.28;;;-1.90;100.00
48624;BME280;34422;45.802;16.114;2023-12-20T02:48:13;63574.28;;;-2.17;100.00
48624;BME280;34422;45.802;16.114;2023-12-20T02:51:25;63557.28;;;-2.33;100.00
48624;BME280;34422;45.802;16.114;2023-12-20T02:55:07;63567.91;;;-2.23;100.00
48624;BME280;34422;45.802;16.114;2023-12-20T02:58:15;63553.09;;;-2.32;100.00
48624;BME280;34422;45.802;16.114;2023-12-20T03:01:16;63549.81;;;-2.40;100.00
48624;BME280;34422;45.802;16.114;2023-12-20T03:04:54;63552.00;;;-2.36;100.00
48624;BME280;34422;45.802;16.114;2023-12-20T03:14:47;63547.25;;;-2.38;100.00
48624;BME280;34422;45.802;16.114;2023-12-20T03:18:05;63527.56;;;-2.57;100.00
48624;BME280;34422;45.802;16.114;2023-12-20T03:21:13;63526.50;;;-2.58;100.00
48624;BME280;34422;45.802;16.114;2023-12-20T03:24:24;63554.00;;;-2.41;100.00
48624;BME280;34422;45.802;16.114;2023-12-20T03:27:31;63501.47;;;-2.84;100.00
48624;BME280;34422;45.802;16.114;2023-12-20T03:30:34;63533.88;;;-2.56;100.00
48624;BME280;34422;45.802;16.114;2023-12-20T03:33:29;63539.69;;;-2.53;100.00
48624;BME280;34422;45.802;16.114;2023-12-20T03:36:36;63547.69;;;-2.42;100.00
48624;BME280;34422;45.802;16.114;2023-12-20T03:39:53;63539.19;;;-2.51;100.00
48624;BME280;34422;45.802;16.114;2023-12-20T03:46:20;63556.22;;;-2.34;100.00
48624;BME280;34422;45.802;16.114;2023-12-20T03:49:24;63532.25;;;-2.60;100.00
48624;BME280;34422;45.802;16.114;2023-12-20T03:52:02;63551.47;;;-2.36;100.00
48624;BME280;34422;45.802;16.114;2023-12-20T03:54:35;63545.56;;;-2.44;100.00
48624;BME280;34422;45.802;16.114;2023-12-20T03:57:21;63519.06;;;-2.65;100.00
48624;BME280;34422;45.802;16.114;2023-12-20T04:00:00;63536.00;;;-2.54;100.00
48624;BME280;34422;45.802;16.114;2023-12-20T04:02:43;63542.94;;;-2.44;100.00
48624;BME280;34422;45.802;16.114;2023-12-20T04:05:28;63541.31;;;-2.48;100.00
48624;BME280;34422;45.802;16.114;2023-12-20T04:08:20;63547.16;;;-2.43;100.00
48624;BME280;34422;45.802;16.114;2023-12-20T04:11:07;63528.56;;;-2.61;100.00
48624;BME280;34422;45.802;16.114;2023-12-20T04:13:45;63544.03;;;-2.41;100.00
48624;BME280;34422;45.802;16.114;2023-12-20T04:16:28;63546.59;;;-2.46;100.00
48624;BME280;34422;45.802;16.114;2023-12-20T04:22:44;63530.72;;;-2.56;100.00
48624;BME280;34422;45.802;16.114;2023-12-20T04:25:50;63524.38;;;-2.60;100.00
48624;BME280;34422;45.802;16.114;2023-12-20T04:28:25;63541.31;;;-2.48;100.00
48624;BME280;34422;45.802;16.114;2023-12-20T04:31:04;63510.47;;;-2.78;100.00
48624;BME280;34422;45.802;16.114;2023-12-20T04:33:39;63507.78;;;-2.83;100.00
48624;BME280;34422;45.802;16.114;2023-12-20T04:36:26;63501.97;;;-2.86;100.00
48624;BME280;34422;45.802;16.114;2023-12-20T04:39:23;63500.97;;;-2.82;100.00
48624;BME280;34422;45.802;16.114;2023-12-20T04:50:47;63503.56;;;-2.84;100.00
48624;BME280;34422;45.802;16.114;2023-12-20T04:53:37;63490.28;;;-2.97;100.00
48624;BME280;34422;45.802;16.114;2023-12-20T04:56:49;63511.47;;;-2.82;100.00
48624;BME280;34422;45.802;16.114;2023-12-20T04:59:41;63509.88;;;-2.83;100.00
48624;BME280;34422;45.802;16.114;2023-12-20T05:03:14;63508.34;;;-2.80;100.00
48624;BME280;34422;45.802;16.114;2023-12-20T05:06:31;63509.94;;;-2.78;100.00
48624;BME280;34422;45.802;16.114;2023-12-20T05:09:24;63491.34;;;-2.96;100.00
48624;BME280;34422;45.802;16.114;2023-12-20T05:12:12;63497.19;;;-2.91;100.00
48624;BME280;34422;45.802;16.114;2023-12-20T05:15:26;63499.28;;;-2.91;100.00
48624;BME280;34422;45.802;16.114;2023-12-20T05:21:42;63483.44;;;-2.99;100.00
48624;BME280;34422;45.802;16.114;2023-12-20T05:25:15;63498.84;;;-2.84;100.00
48624;BME280;34422;45.802;16.114;2023-12-20T05:31:41;63489.22;;;-2.98;100.00
48624;BME280;34422;45.802;16.114;2023-12-20T05:34:55;63501.47;;;-2.84;100.00
48624;BME280;34422;45.802;16.114;2023-12-20T05:37:47;63505.69;;;-2.82;100.00
48624;BME280;34422;45.802;16.114;2023-12-20T05:56:46;63485.03;;;-2.97;100.00
48624;BME280;34422;45.802;16.114;2023-12-20T06:03:47;63458.44;;;-3.23;100.00
48624;BME280;34422;45.802;16.114;2023-12-20T06:09:41;63492.97;;;-2.92;100.00
48624;BME280;34422;45.802;16.114;2023-12-20T06:13:12;63497.22;;;-2.88;100.00
48624;BME280;34422;45.802;16.114;2023-12-20T06:16:15;63500.91;;;-2.87;100.00
48624;BME280;34422;45.802;16.114;2023-12-20T06:22:20;63485.53;;;-2.99;100.00
48624;BME280;34422;45.802;16.114;2023-12-20T06:25:27;63501.94;;;-2.89;100.00
48624;BME280;34422;45.802;16.114;2023-12-20T06:28:21;63473.78;;;-3.13;100.00
48624;BME280;34422;45.802;16.114;2023-12-20T06:30:50;63494.53;;;-2.93;100.00
48624;BME280;34422;45.802;16.114;2023-12-20T06:33:25;63472.22;;;-3.14;100.00
48624;BME280;34422;45.802;16.114;2023-12-20T06:35:54;63483.91;;;-3.03;100.00
48624;BME280;34422;45.802;16.114;2023-12-20T06:41:38;63501.94;;;-2.89;100.00
48624;BME280;34422;45.802;16.114;2023-12-20T06:44:28;63503.03;;;-2.85;100.00
48624;BME280;34422;45.802;16.114;2023-12-20T06:47:26;63488.72;;;-2.96;100.00
48624;BME280;34422;45.802;16.114;2023-12-20T06:50:17;63471.16;;;-3.15;100.00
48624;BME280;34422;45.802;16.114;2023-12-20T06:53:08;63507.28;;;-2.81;100.00
48624;BME280;34422;45.802;16.114;2023-12-20T06:55:48;63514.22;;;-2.72;100.00
48624;BME280;34422;45.802;16.114;2023-12-20T06:59:03;63485.03;;;-2.97;100.00
48624;BME280;34422;45.802;16.114;2023-12-20T07:05:29;63518.50;;;-2.68;100.00
48624;BME280;34422;45.802;16.114;2023-12-20T07:10:58;63583.31;;;-2.11;100.00
48624;BME280;34422;45.802;16.114;2023-12-20T07:13:30;63619.56;;;-1.71;100.00
48624;BME280;34422;45.802;16.114;2023-12-20T07:16:11;63596.66;;;-1.96;100.00
48624;BME280;34422;45.802;16.114;2023-12-20T07:18:40;63625.97;;;-1.65;100.00
48624;BME280;34422;45.802;16.114;2023-12-20T07:21:13;63617.88;;;-1.81;100.00
48624;BME280;34422;45.802;16.114;2023-12-20T07:23:43;63614.81;;;-1.73;100.00
48624;BME280;34422;45.802;16.114;2023-12-20T07:26:10;63611.06;;;-1.80;100.00
48624;BME280;34422;45.802;16.114;2023-12-20T07:28:38;63556.22;;;-2.34;100.00
48624;BME280;34422;45.802;16.114;2023-12-20T07:31:05;63565.78;;;-2.25;100.00
48624;BME280;34422;45.802;16.114;2023-12-20T07:33:32;63556.69;;;-2.39;100.00
48624;BME280;34422;45.802;16.114;2023-12-20T07:35:59;63548.75;;;-2.41;100.00
48624;BME280;34422;45.802;16.114;2023-12-20T07:41:17;63554.09;;;-2.36;100.00
48624;BME280;34422;45.802;16.114;2023-12-20T07:43:48;63561.00;;;-2.30;100.00
48624;BME280;34422;45.802;16.114;2023-12-20T07:46:23;63586.06;;;-2.01;100.00
48624;BME280;34422;45.802;16.114;2023-12-20T07:49:12;63590.34;;;-1.97;100.00
48624;BME280;34422;45.802;16.114;2023-12-20T07:51:39;63604.09;;;-1.89;100.00
48624;BME280;34422;45.802;16.114;2023-12-20T07:54:13;63607.28;;;-1.86;100.00
48624;BME280;34422;45.802;16.114;2023-12-20T07:56:40;63610.47;;;-1.83;100.00
48624;BME280;34422;45.802;16.114;2023-12-20T07:59:06;63595.06;;;-1.97;100.00
48624;BME280;34422;45.802;16.114;2023-12-20T08:01:33;63625.91;;;-1.68;100.00
48624;BME280;34422;45.802;16.114;2023-12-20T08:04:00;63610.53;;;-1.80;100.00
48624;BME280;34422;45.802;16.114;2023-12-20T08:06:27;63636.09;;;-1.53;100.00
48624;BME280;34422;45.802;16.114;2023-12-20T08:09:00;63644.03;;;-1.48;100.00
48624;BME280;34422;45.802;16.114;2023-12-20T08:11:26;63667.97;;;-1.28;100.00
48624;BME280;34422;45.802;16.114;2023-12-20T08:13:56;63663.78;;;-1.27;100.00
48624;BME280;34422;45.802;16.114;2023-12-20T08:16:23;63660.59;;;-1.30;100.00
48624;BME280;34422;45.802;16.114;2023-12-20T08:18:51;63671.19;;;-1.25;100.00
48624;BME280;34422;45.802;16.114;2023-12-20T08:21:18;63686.09;;;-1.11;100.00
48624;BME280;34422;45.802;16.114;2023-12-20T08:23:46;63695.22;;;-0.97;100.00
48624;BME280;34422;45.802;16.114;2023-12-20T08:26:14;63705.78;;;-0.92;100.00
48624;BME280;34422;45.802;16.114;2023-12-20T08:28:45;63696.25;;;-0.98;100.00
48624;BME280;34422;45.802;16.114;2023-12-20T08:31:16;63716.50;;;-0.77;100.00
48624;BME280;34422;45.802;16.114;2023-12-20T08:33:44;63670.66;;;-1.23;100.00
48624;BME280;34422;45.802;16.114;2023-12-20T08:36:14;63684.44;;;-1.15;100.00
48624;BME280;34422;45.802;16.114;2023-12-20T08:38:41;63717.03;;;-0.76;100.00
48624;BME280;34422;45.802;16.114;2023-12-20T08:41:08;63727.69;;;-0.66;100.00
48624;BME280;34422;45.802;16.114;2023-12-20T08:43:35;63721.84;;;-0.72;100.00
48624;BME280;34422;45.802;16.114;2023-12-20T08:46:02;63731.34;;;-0.67;100.00
48624;BME280;34422;45.802;16.114;2023-12-20T08:48:29;63731.94;;;-0.62;100.00
48624;BME280;34422;45.802;16.114;2023-12-20T08:50:56;63713.78;;;-0.84;100.00
48624;BME280;34422;45.802;16.114;2023-12-20T08:53:23;63735.66;;;-0.61;100.00
48624;BME280;34422;45.802;16.114;2023-12-20T08:55:49;63748.50;;;-0.44;100.00
48624;BME280;34422;45.802;16.114;2023-12-20T08:58:16;63775.63;;;-0.23;100.00
48624;BME280;34422;45.802;16.114;2023-12-20T09:00:43;63742.03;;;-0.57;100.00
48624;BME280;34422;45.802;16.114;2023-12-20T09:03:10;63705.28;;;-0.90;100.00
48624;BME280;34422;45.802;16.114;2023-12-20T09:05:37;63696.78;;;-0.98;100.00
48624;BME280;34422;45.802;16.114;2023-12-20T09:08:04;63718.03;;;-0.80;100.00
48624;BME280;34422;45.802;16.114;2023-12-20T09:10:31;63743.63;;;-0.56;100.00
48624;BME280;34422;45.802;16.114;2023-12-20T09:12:58;63745.28;;;-0.49;100.00
48624;BME280;34422;45.802;16.114;2023-12-20T09:15:26;63760.69;;;-0.37;100.00
48624;BME280;34422;45.802;16.114;2023-12-20T09:17:53;63798.53;;;-0.04;100.00
48624;BME280;34422;45.802;16.114;2023-12-20T09:20:20;63782.56;;;-0.16;100.00
48624;BME280;34422;45.802;16.114;2023-12-20T09:22:47;63815.06;;;0.12;100.00
48624;BME280;34422;45.802;16.114;2023-12-20T09:25:14;63812.94;;;0.13;100.00
48624;BME280;34422;45.802;16.114;2023-12-20T09:27:42;63816.13;;;0.13;100.00
48624;BME280;34422;45.802;16.114;2023-12-20T09:30:09;63806.50;;;0.04;100.00
48624;BME280;34422;45.802;16.114;2023-12-20T09:32:36;63798.56;;;-0.01;100.00
48624;BME280;34422;45.802;16.114;2023-12-20T09:35:04;63823.63;;;0.25;100.00
48624;BME280;34422;45.802;16.114;2023-12-20T09:37:32;63839.56;;;0.35;100.00
48624;BME280;34422;45.802;16.114;2023-12-20T09:39:59;63834.34;;;0.38;100.00
48624;BME280;34422;45.802;16.114;2023-12-20T09:43:09;63840.13;;;0.39;100.00
48624;BME280;34422;45.802;16.114;2023-12-20T09:45:38;63843.38;;;0.47;100.00
48624;BME280;34422;45.802;16.114;2023-12-20T09:48:07;63879.66;;;0.81;100.00
48624;BME280;34422;45.802;16.114;2023-12-20T09:50:37;63899.84;;;0.93;100.00
48624;BME280;34422;45.802;16.114;2023-12-20T09:53:04;63904.75;;;1.05;100.00
48624;BME280;34422;45.802;16.114;2023-12-20T09:55:35;63931.41;;;1.28;100.00
48624;BME280;34422;45.802;16.114;2023-12-20T09:58:03;63967.06;;;1.54;100.00
48624;BME280;34422;45.802;16.114;2023-12-20T10:00:36;63970.84;;;1.60;100.00
48624;BME280;34422;45.802;16.114;2023-12-20T10:03:03;63986.91;;;1.81;100.00
48624;BME280;34422;45.802;16.114;2023-12-20T10:05:36;63994.91;;;1.86;100.00
48624;BME280;34422;45.802;16.114;2023-12-20T10:08:12;63994.34;;;1.83;100.00
48624;BME280;34422;45.802;16.114;2023-12-20T10:10:39;63982.66;;;1.76;100.00
48624;BME280;34422;45.802;16.114;2023-12-20T10:13:10;63971.41;;;1.63;100.00
48624;BME280;34422;45.802;16.114;2023-12-20T10:15:38;63971.47;;;1.68;100.00
48624;BME280;34422;45.802;16.114;2023-12-20T10:18:05;63971.41;;;1.63;100.00
48624;BME280;34422;45.802;16.114;2023-12-20T10:20:32;63968.25;;;1.65;100.00
48624;BME280;34422;45.802;16.114;2023-12-20T10:23:00;63989.03;;;1.80;100.00
48624;BME280;34422;45.802;16.114;2023-12-20T10:25:27;64012.56;;;2.07;100.00
48624;BME280;34422;45.802;16.114;2023-12-20T10:28:13;64005.09;;;1.98;100.00
48624;BME280;34422;45.802;16.114;2023-12-20T10:30:41;64031.78;;;2.23;100.00
48624;BME280;34422;45.802;16.114;2023-12-20T10:33:08;64023.81;;;2.18;100.00
48624;BME280;34422;45.802;16.114;2023-12-20T10:35:37;64006.63;;;1.94;100.00
48624;BME280;34422;45.802;16.114;2023-12-20T10:38:05;64014.19;;;2.09;100.00
48624;BME280;34422;45.802;16.114;2023-12-20T10:40:36;64034.50;;;2.28;100.00
48624;BME280;34422;45.802;16.114;2023-12-20T10:43:06;64038.78;;;2.32;100.00
48624;BME280;34422;45.802;16.114;2023-12-20T10:45:34;64030.22;;;2.24;100.00
48624;BME280;34422;45.802;16.114;2023-12-20T10:48:01;64031.78;;;2.23;100.00
48624;BME280;34422;45.802;16.114;2023-12-20T10:50:30;64055.81;;;2.43;100.00
48624;BME280;34422;45.802;16.114;2023-12-20T10:52:58;64074.03;;;2.66;100.00
48624;BME280;34422;45.802;16.114;2023-12-20T10:55:25;64090.59;;;2.81;100.00
48624;BME280;34422;45.802;16.114;2023-12-20T10:58:09;64099.13;;;2.87;100.00
48624;BME280;34422;45.802;16.114;2023-12-20T11:00:40;64038.22;;;2.29;100.00
48624;BME280;34422;45.802;16.114;2023-12-20T11:03:08;64080.97;;;2.70;100.00
48624;BME280;34422;45.802;16.114;2023-12-20T11:05:46;64107.63;;;2.90;100.00
48624;BME280;34422;45.802;16.114;2023-12-20T11:08:31;64151.03;;;3.41;100.00
48624;BME280;34422;45.802;16.114;2023-12-20T11:11:13;64157.44;;;3.45;100.00
48624;BME280;34422;45.802;16.114;2023-12-20T11:13:53;64167.00;;;3.49;100.00
48624;BME280;34422;45.802;16.114;2023-12-20T11:16:21;64156.88;;;3.42;100.00
48624;BME280;34422;45.802;16.114;2023-12-20T11:18:50;64120.50;;;3.07;100.00
48624;BME280;34422;45.802;16.114;2023-12-20T11:21:17;64141.88;;;3.25;100.00
48624;BME280;34422;45.802;16.114;2023-12-20T11:23:44;64115.16;;;3.02;100.00
48624;BME280;34422;45.802;16.114;2023-12-20T11:26:10;64115.16;;;3.02;100.00
48624;BME280;34422;45.802;16.114;2023-12-20T11:28:38;64131.72;;;3.18;100.00
48624;BME280;34422;45.802;16.114;2023-12-20T11:31:05;64130.13;;;3.16;100.00
48624;BME280;34422;45.802;16.114;2023-12-20T11:33:37;64164.34;;;3.49;100.00
48624;BME280;34422;45.802;16.114;2023-12-20T11:36:15;64184.63;;;3.63;100.00
48624;BME280;34422;45.802;16.114;2023-12-20T11:38:56;64245.13;;;4.23;100.00
48624;BME280;34422;45.802;16.114;2023-12-20T11:41:23;64240.88;;;4.24;100.00
48624;BME280;34422;45.802;16.114;2023-12-20T11:43:54;64174.50;;;3.56;100.00
48624;BME280;34422;45.802;16.114;2023-12-20T11:46:22;64162.28;;;3.52;100.00
48624;BME280;34422;45.802;16.114;2023-12-20T11:48:49;64204.50;;;3.89;100.00
48624;BME280;34422;45.802;16.114;2023-12-20T11:51:17;64177.69;;;3.59;100.00
48624;BME280;34422;45.802;16.114;2023-12-20T11:53:44;64176.13;;;3.60;100.00
48624;BME280;34422;45.802;16.114;2023-12-20T11:56:11;64183.63;;;3.67;100.00
48624;BME280;34422;45.802;16.114;2023-12-20T11:58:38;64180.94;;;3.65;100.00
48624;BME280;34422;45.802;16.114;2023-12-20T12:01:05;64133.91;;;3.22;100.00
48624;BME280;34422;45.802;16.114;2023-12-20T12:03:36;64171.84;;;3.56;100.00
48624;BME280;34422;45.802;16.114;2023-12-20T12:06:03;64170.19;;;3.49;100.00
48624;BME280;34422;45.802;16.114;2023-12-20T12:08:35;64171.28;;;3.53;100.00
48624;BME280;34422;45.802;16.114;2023-12-20T12:11:20;64185.75;;;3.69;100.00
48624;BME280;34422;45.802;16.114;2023-12-20T12:14:30;64193.25;;;3.76;100.00
48624;BME280;34422;45.802;16.114;2023-12-20T12:16:57;64201.28;;;3.86;100.00
48624;BME280;34422;45.802;16.114;2023-12-20T12:19:26;64232.31;;;4.16;100.00
48624;BME280;34422;45.802;16.114;2023-12-20T12:22:09;64243.59;;;4.29;100.00
48624;BME280;34422;45.802;16.114;2023-12-20T12:24:46;64255.38;;;4.40;100.00
48624;BME280;34422;45.802;16.114;2023-12-20T12:27:15;64251.03;;;4.31;100.00
48624;BME280;34422;45.802;16.114;2023-12-20T12:30:00;64248.38;;;4.31;100.00
48624;BME280;34422;45.802;16.114;2023-12-20T12:32:29;64266.03;;;4.45;100.00
48624;BME280;34422;45.802;16.114;2023-12-20T12:34:56;64264.97;;;4.44;100.00
48624;BME280;34422;45.802;16.114;2023-12-20T12:37:25;64288.50;;;4.67;100.00
48624;BME280;34422;45.802;16.114;2023-12-20T12:39:54;64297.13;;;4.80;100.00
48624;BME280;34422;45.802;16.114;2023-12-20T12:42:21;64287.50;;;4.71;100.00
48624;BME280;34422;45.802;16.114;2023-12-20T12:44:55;64276.78;;;4.60;100.00
48624;BME280;34422;45.802;16.114;2023-12-20T12:47:23;64273.53;;;4.55;100.00
48624;BME280;34422;45.802;16.114;2023-12-20T12:49:51;64277.28;;;4.56;100.00
48624;BME280;34422;45.802;16.114;2023-12-20T12:52:19;64298.16;;;4.76;100.00
48624;BME280;34422;45.802;16.114;2023-12-20T12:54:45;64285.31;;;4.63;100.00
48624;BME280;34422;45.802;16.114;2023-12-20T12:57:14;64296.56;;;4.77;100.00
48624;BME280;34422;45.802;16.114;2023-12-20T12:59:42;64270.31;;;4.52;100.00
48624;BME280;34422;45.802;16.114;2023-12-20T13:02:10;64272.44;;;4.51;100.00
48624;BME280;34422;45.802;16.114;2023-12-20T13:04:37;64275.72;;;4.59;100.00
48624;BME280;34422;45.802;16.114;2023-12-20T13:07:04;64284.75;;;4.60;100.00
48624;BME280;34422;45.802;16.114;2023-12-20T13:09:31;64289.59;;;4.68;100.00
48624;BME280;34422;45.802;16.114;2023-12-20T13:11:58;64264.97;;;4.44;100.00
48624;BME280;34422;45.802;16.114;2023-12-20T13:14:26;64232.31;;;4.16;100.00
48624;BME280;34422;45.802;16.114;2023-12-20T13:16:53;64230.22;;;4.16;100.00
48624;BME280;34422;45.802;16.114;2023-12-20T13:19:19;64229.63;;;4.11;100.00
48624;BME280;34422;45.802;16.114;2023-12-20T13:21:47;64231.22;;;4.10;100.00
48624;BME280;34422;45.802;16.114;2023-12-20T13:24:15;64241.44;;;4.27;100.00
48624;BME280;34422;45.802;16.114;2023-12-20T13:26:42;64239.81;;;4.20;100.00
48624;BME280;34422;45.802;16.114;2023-12-20T13:29:12;64241.97;;;4.25;100.00
48624;BME280;34422;45.802;16.114;2023-12-20T13:31:39;64259.06;;;4.36;100.00
48624;BME280;34422;45.802;16.114;2023-12-20T13:34:06;64260.13;;;4.40;100.00
48624;BME280;34422;45.802;16.114;2023-12-20T13:36:34;64237.72;;;4.23;100.00
48624;BME280;34422;45.802;16.114;2023-12-20T13:39:01;64233.41;;;4.17;100.00
48624;BME280;34422;45.802;16.114;2023-12-20T13:41:29;64248.34;;;4.26;100.00
48624;BME280;34422;45.802;16.114;2023-12-20T13:43:56;64255.84;;;4.33;100.00
48624;BME280;34422;45.802;16.114;2023-12-20T13:46:23;64247.25;;;4.25;100.00
48624;BME280;34422;45.802;16.114;2023-12-20T13:48:52;64234.44;;;4.15;100.00
48624;BME280;34422;45.802;16.114;2023-12-20T13:51:19;64229.63;;;4.11;100.00
48624;BME280;34422;45.802;16.114;2023-12-20T13:53:48;64240.88;;;4.24;100.00
48624;BME280;34422;45.802;16.114;2023-12-20T13:56:15;64236.09;;;4.22;100.00
48624;BME280;34422;45.802;16.114;2023-12-20T13:58:42;64243.53;;;4.24;100.00
48624;BME280;34422;45.802;16.114;2023-12-20T14:01:10;64244.06;;;4.24;100.00
48624;BME280;34422;45.802;16.114;2023-12-20T14:03:37;64254.25;;;4.34;100.00
48624;BME280;34422;45.802;16.114;2023-12-20T14:06:04;64251.03;;;4.31;100.00
48624;BME280;34422;45.802;16.114;2023-12-20T14:08:31;64230.22;;;4.16;100.00
48624;BME280;34422;45.802;16.114;2023-12-20T14:10:58;64241.94;;;4.22;100.00
48624;BME280;34422;45.802;16.114;2023-12-20T14:13:24;64222.69;;;4.07;100.00
48624;BME280;34422;45.802;16.114;2023-12-20T14:15:52;64233.41;;;4.17;100.00
48624;BME280;34422;45.802;16.114;2023-12-20T14:18:24;64231.25;;;4.15;100.00
48624;BME280;34422;45.802;16.114;2023-12-20T14:20:51;64225.88;;;4.07;100.00
48624;BME280;34422;45.802;16.114;2023-12-20T14:23:19;64232.88;;;4.16;100.00
48624;BME280;34422;45.802;16.114;2023-12-20T14:25:46;64207.72;;;3.92;100.00
48624;BME280;34422;45.802;16.114;2023-12-20T14:28:17;64206.66;;;3.91;100.00
48624;BME280;34422;45.802;16.114;2023-12-20T14:30:48;64216.25;;;3.96;100.00
48624;BME280;34422;45.802;16.114;2023-12-20T14:33:45;64206.66;;;3.91;100.00
48624;BME280;34422;45.802;16.114;2023-12-20T14:36:15;64239.31;;;4.25;100.00
48624;BME280;34422;45.802;16.114;2023-12-20T14:38:44;64215.19;;;4.00;100.00
48624;BME280;34422;45.802;16.114;2023-12-20T14:41:12;64205.00;;;3.85;100.00
48624;BME280;34422;45.802;16.114;2023-12-20T14:43:39;64200.78;;;3.88;100.00
48624;BME280;34422;45.802;16.114;2023-12-20T14:46:06;64195.91;;;3.76;100.00
48624;BME280;34422;45.802;16.114;2023-12-20T14:48:33;64182.56;;;3.66;100.00
48624;BME280;34422;45.802;16.114;2023-12-20T14:51:00;64186.28;;;3.70;100.00
48624;BME280;34422;45.802;16.114;2023-12-20T14:53:28;64185.25;;;3.71;100.00
48624;BME280;34422;45.802;16.114;2023-12-20T14:56:01;64165.97;;;3.50;100.00
48624;BME280;34422;45.802;16.114;2023-12-20T14:58:29;64181.47;;;3.65;100.00
48624;BME280;34422;45.802;16.114;2023-12-20T15:00:56;64178.25;;;3.62;100.00
48624;BME280;34422;45.802;16.114;2023-12-20T15:03:23;64172.94;;;3.60;100.00
48624;BME280;34422;45.802;16.114;2023-12-20T15:05:50;64155.84;;;3.46;100.00
48624;BME280;34422;45.802;16.114;2023-12-20T15:08:17;64171.31;;;3.55;100.00
48624;BME280;34422;45.802;16.114;2023-12-20T15:11:01;64157.41;;;3.42;100.00
48624;BME280;34422;45.802;16.114;2023-12-20T15:13:40;64169.72;;;3.54;100.00
48624;BME280;34422;45.802;16.114;2023-12-20T15:16:33;64171.28;;;3.53;100.00
48624;BME280;34422;45.802;16.114;2023-12-20T15:19:02;64159.56;;;3.47;100.00
48624;BME280;34422;45.802;16.114;2023-12-20T15:21:35;64163.84;;;3.51;100.00
48624;BME280;34422;45.802;16.114;2023-12-20T15:24:07;64161.66;;;3.44;100.00
48624;BME280;34422;45.802;16.114;2023-12-20T15:26:42;64173.97;;;3.58;100.00
48624;BME280;34422;45.802;16.114;2023-12-20T15:29:10;64156.88;;;3.42;100.00
48624;BME280;34422;45.802;16.114;2023-12-20T15:31:46;64167.53;;;3.49;100.00
48624;BME280;34422;45.802;16.114;2023-12-20T15:34:13;64161.16;;;3.46;100.00
48624;BME280;34422;45.802;16.114;2023-12-20T15:36:40;64155.28;;;3.43;100.00